Flight Track Log - Related Links

Times and Time Zones

All times are in EDT time to prevent confusion due to time zone crossing. See the N249A flight status page for this flight to view local times or setup timezone preferences in your user account.

Time Position Orientation Groundspeed Altitude Reporting Facility
EDT Latitude Longitude Course Direction KTS MPH feet Rate Location/Type
Fri 09:54:29 AM 45.4667 -73.7000 35° Northeast 90 104 800  Level Montreal Center
Fri 09:55:29 AM 45.4833 -73.6667 54° Northeast 100 115 1,900 1,050 Climbing Montreal Center
Fri 09:56:29 AM 45.5000 -73.6500 35° Northeast 100 115 2,900 950 Climbing Montreal Center
Fri 09:57:29 AM 45.4833 -73.6000 115° Southeast 110 127 3,800 900 Climbing Montreal Center
Fri 09:58:29 AM 45.4667 -73.5833 145° Southeast 120 138 4,700 600 Climbing Montreal Center
Fri 09:59:00 AM 45.2470 -73.8585 203° Southwest  Level FlightAware
Fri 09:59:29 AM 45.4333 -73.5333 134° Southeast 130 150 5,000  Level Montreal Center
Fri 10:00:29 AM 45.4000 -73.5333 180° South 170 196 5,000  Level Montreal Center
Fri 10:01:29 AM 45.3500 -73.5167 167° South 180 207 5,000  Level Montreal Center
Fri 10:02:29 AM 45.3000 -73.5167 180° South 170 196 5,000  Level Montreal Center
Fri 10:03:29 AM 45.2500 -73.5333 193° South 170 196 5,000  Level Montreal Center
Fri 10:04:29 AM 45.2167 -73.5667 215° Southwest 170 196 5,000  Level Montreal Center
Fri 10:05:29 AM 45.1667 -73.6000 205° Southwest 170 196 5,000  Level Montreal Center
Fri 10:06:29 AM 45.1167 -73.6167 193° South 170 196 5,000  Level Montreal Center
Fri 10:07:29 AM 45.0833 -73.6500 215° Southwest 170 196 5,000 50 Level Montreal Center
Fri 10:08:29 AM 45.0333 -73.7000 215° Southwest 170 196 5,100 350 Climbing Montreal Center
Fri 10:09:29 AM 45.0000 -73.7000 180° South 150 173 5,700 600 Climbing Montreal Center
Fri 10:10:29 AM 44.9500 -73.7167 193° South 150 173 6,300 600 Climbing Montreal Center
Fri 10:11:29 AM 44.9167 -73.7500 215° Southwest 140 161 6,900 550 Climbing Montreal Center
Fri 10:12:29 AM 44.8833 -73.7667 200° South 140 161 7,400 500 Climbing Montreal Center
Fri 10:13:29 AM 44.8500 -73.8000 215° Southwest 130 150 7,900 300 Climbing Montreal Center
Fri 10:14:29 AM 44.8000 -73.8000 180° South 160 184 8,000 50 Climbing Montreal Center
Fri 10:15:29 AM 44.7667 -73.8167 200° South 160 184 8,000  Level Montreal Center
Fri 10:16:29 AM 44.7167 -73.8500 205° Southwest 160 184 8,000  Level Montreal Center
Fri 10:17:29 AM 44.7000 -73.9000 245° Southwest 140 161 8,000  Level Montreal Center
Fri 10:18:49 AM 44.7311 -73.9822 298° West 142 163 8,000  Level Boston Center
Fri 10:19:50 AM 44.7414 -74.0350 285° West 141 162 8,000  Level Boston Center
Fri 10:20:52 AM 44.7539 -74.0894 288° West 140 161 8,000  Level Boston Center
Fri 10:21:53 AM 44.7650 -74.1389 288° West 140 161 8,000  Level Boston Center
Fri 10:22:54 AM 44.7767 -74.1917 287° West 140 161 8,000  Level Boston Center
Fri 10:23:56 AM 44.7881 -74.2422 288° West 140 161 8,000  Level Boston Center
Fri 10:24:57 AM 44.8000 -74.2947 288° West 139 160 8,000  Level Boston Center
Fri 10:25:59 AM 44.8125 -74.3464 289° West 139 160 8,000  Level Boston Center
Fri 10:27:01 AM 44.8275 -74.4094 289° West 140 161 8,000  Level Boston Center
Fri 10:28:02 AM 44.8425 -74.4600 293° West 140 161 8,000  Level Boston Center
Fri 10:29:04 AM 44.8642 -74.5044 305° West 139 160 8,000  Level Boston Center
Fri 10:30:29 AM 44.8833 -74.5667 294° West 130 150 8,000  Level Montreal Center
Fri 10:31:29 AM 44.9000 -74.6167 295° West 140 161 8,000  Level Montreal Center
Fri 10:32:29 AM 44.9000 -74.6667 270° West 140 161 8,000  Level Montreal Center
Fri 10:33:29 AM 44.9000 -74.7167 270° West 140 161 8,000  Level Montreal Center
Fri 10:34:29 AM 44.8833 -74.7833 251° West 140 161 8,000  Level Montreal Center
Fri 10:35:29 AM 44.8833 -74.8333 270° West 140 161 8,000  Level Montreal Center
Fri 10:36:29 AM 44.8667 -74.8833 245° Southwest 140 161 8,000  Level Montreal Center
Fri 10:37:29 AM 44.8500 -74.9333 245° Southwest 140 161 8,000 -50 Level Montreal Center
Fri 10:38:29 AM 44.8333 -74.9833 245° Southwest 140 161 7,900  Descending Montreal Center
Fri 10:39:29 AM 44.8167 -75.0167 235° Southwest 140 161 8,000  Climbing Montreal Center
Fri 10:40:29 AM 44.8000 -75.1000 254° West 140 161 7,900  Descending Montreal Center
Fri 10:41:29 AM 44.7833 -75.1500 245° Southwest 140 161 8,000  Climbing Montreal Center
Fri 10:42:29 AM 44.7667 -75.1833 235° Southwest 140 161 7,900 -50 Descending Montreal Center
Fri 10:43:29 AM 44.7500 -75.2333 245° Southwest 140 161 7,900  Level Montreal Center
Fri 10:44:29 AM 44.7333 -75.2833 245° Southwest 140 161 7,900 50 Level Montreal Center
Fri 10:45:29 AM 44.7167 -75.3333 245° Southwest 140 161 8,000  Climbing Montreal Center
Fri 10:46:29 AM 44.7000 -75.4000 251° West 140 161 7,900  Descending Montreal Center
Fri 10:47:29 AM 44.6667 -75.4333 215° Southwest 150 173 8,000  Climbing Montreal Center
Fri 10:48:29 AM 44.6333 -75.4500 200° South 150 173 7,900  Descending Montreal Center
Fri 10:49:29 AM 44.6000 -75.4667 200° South 150 173 8,000  Climbing Montreal Center
Fri 10:50:29 AM 44.5667 -75.5167 227° Southwest 150 173 7,900 -50 Descending Montreal Center
Fri 10:51:29 AM 44.5333 -75.5500 215° Southwest 150 173 7,900 100 Level Montreal Center
Fri 10:52:29 AM 44.4833 -75.5667 193° South 150 173 8,100 100 Climbing Montreal Center
Fri 10:53:29 AM 44.4500 -75.6000 216° Southwest 150 173 8,100  Level Montreal Center
Fri 10:54:29 AM 44.4167 -75.6333 216° Southwest 150 173 8,100  Level Montreal Center
Fri 10:55:29 AM 44.3833 -75.6667 216° Southwest 150 173 8,100  Level Montreal Center
Fri 10:56:27 AM 44.3617 -75.7000 228° Southwest 151 174 8,100  Level Boston Center
Fri 10:57:27 AM 44.3236 -75.7317 211° Southwest 151 174 8,100  Level Boston Center
Fri 10:58:28 AM 44.2883 -75.7614 211° Southwest 151 174 8,100  Level Boston Center
Fri 10:59:29 AM 44.2544 -75.7944 215° Southwest 151 174 8,100  Level Boston Center
Fri 11:00:29 AM 44.2181 -75.8294 215° Southwest 150 173 8,100  Level Boston Center
Fri 11:01:30 AM 44.1842 -75.8625 215° Southwest 151 174 8,100  Level Boston Center
Fri 11:01:40 AM 44.1817 -75.8644 209° Southwest 151 174 8,100 -85 Level Boston Center
Fri 11:02:41 AM 44.1481 -75.8981 216° Southwest 151 174 8,000  Descending Boston Center
Fri 11:03:37 AM 44.1114 -75.9325 214° Southwest 152 175 8,100 51 Climbing Boston Center
Fri 11:04:38 AM 44.0775 -75.9653 215° Southwest 151 174 8,100  Level Boston Center
Fri 11:05:38 AM 44.0411 -76.0003 215° Southwest 151 174 8,100  Level Boston Center
Fri 11:06:39 AM 44.0092 -76.0336 217° Southwest 150 173 8,100  Level Boston Center
Fri 11:07:39 AM 43.9681 -76.0581 203° Southwest 152 175 8,100 -86 Level Boston Center
Fri 11:07:49 AM 43.9739 -76.0594 350° North 149 171 8,000 -83 Descending Boston Center
Fri 11:08:51 AM 43.9239 -76.0803 197° South 153 176 8,000 54 Level Boston Center
Fri 11:09:41 AM 43.8853 -76.0883 189° South 156 180 8,100  Climbing Boston Center
Fri 11:09:52 AM 43.8814 -76.0925 218° Southwest 153 176 8,000  Descending Boston Center
Fri 11:10:41 AM 43.8403 -76.0994 187° South 154 177 8,100  Climbing Boston Center
Fri 11:10:54 AM 43.8408 -76.1056 277° West 154 177 8,000  Descending Boston Center
Fri 11:11:42 AM 43.8011 -76.1122 187° South 152 175 8,100 97 Climbing Boston Center
Fri 11:11:56 AM 43.7942 -76.1192 216° Southwest 152 175 8,100  Level Boston Center
Fri 11:12:57 AM 43.7556 -76.1333 195° South 150 173 8,100  Level Boston Center
Fri 11:14:04 AM 43.7103 -76.1486 194° South 149 171 8,100 -48 Level Boston Center
Fri 11:15:01 AM 43.6783 -76.1594 194° South 151 174 8,000  Descending Boston Center
Fri 11:15:59 AM 43.6358 -76.1836 202° Southwest 150 173 8,100  Climbing Boston Center
Fri 11:17:05 AM 43.5989 -76.2172 213° Southwest 151 174 8,000 -47 Descending Boston Center
Fri 11:18:06 AM 43.5731 -76.2589 229° Southwest 148 170 8,000 52 Level Boston Center
Fri 11:19:01 AM 43.5531 -76.3072 240° Southwest 143 165 8,100 52 Climbing Boston Center
Fri 11:20:02 AM 43.5317 -76.3564 239° Southwest 144 166 8,100  Level Boston Center
Fri 11:21:03 AM 43.5131 -76.4033 241° Southwest 144 166 8,100  Level Boston Center
Fri 11:22:03 AM 43.4922 -76.4494 238° Southwest 145 167 8,100 -86 Level Boston Center
Fri 11:22:13 AM 43.4914 -76.4494 180° South 146 168 8,000 -83 Descending Boston Center
Fri 11:23:15 AM 43.4667 -76.5067 239° Southwest 146 168 8,000  Level Boston Center
Fri 11:24:17 AM 43.4475 -76.5556 242° Southwest 146 168 8,000  Level Boston Center
Fri 11:25:19 AM 43.4267 -76.6033 239° Southwest 146 168 8,000  Level Boston Center
Fri 11:26:20 AM 43.4075 -76.6511 241° Southwest 146 168 8,000  Level Boston Center
Fri 11:27:22 AM 43.3864 -76.7006 240° Southwest 145 167 8,000 48 Level Boston Center
Fri 11:28:24 AM 43.3667 -76.7472 240° Southwest 145 167 8,100 48 Climbing Boston Center
Fri 11:29:26 AM 43.3511 -76.7953 246° West 143 165 8,100  Level Boston Center
Fri 11:30:27 AM 43.3386 -76.8475 252° West 143 165 8,100  Level Boston Center
Fri 11:31:29 AM 43.3242 -76.9114 253° West 143 165 8,100 -48 Level Boston Center
Fri 11:32:32 AM 43.3117 -76.9600 251° West 143 165 8,000 -74 Descending Cleveland Center
Fri 11:32:50 AM 43.3067 -76.9825 253° West 144 166 8,000  Level Cleveland Center
Fri 11:33:34 AM 43.2997 -77.0117 252° West 143 165 8,000  Level Cleveland Center
Fri 11:33:51 AM 43.2953 -77.0347 255° West 144 166 8,000  Level Cleveland Center
Fri 11:34:36 AM 43.2867 -77.0664 250° West 143 165 8,000  Level Cleveland Center
Fri 11:34:58 AM 43.2811 -77.0922 254° West 144 166 8,000  Level Cleveland Center
Fri 11:35:37 AM 43.2739 -77.1178 249° West 143 165 8,000  Level Cleveland Center
Fri 11:35:52 AM 43.2681 -77.1411 251° West 144 166 8,000  Level Cleveland Center
Fri 11:36:39 AM 43.2614 -77.1697 252° West 143 165 8,000  Level Cleveland Center
Fri 11:37:05 AM 43.2531 -77.2039 251° West 143 165 8,000  Level Cleveland Center
Fri 11:37:41 AM 43.2467 -77.2311 252° West 143 165 8,000  Level Cleveland Center
Fri 11:38:12 AM 43.2392 -77.2583 249° West 143 165 8,000  Level Cleveland Center
Fri 11:38:42 AM 43.2331 -77.2833 251° West 143 165 8,000  Level Cleveland Center
Fri 11:39:44 AM 43.2194 -77.3333 250° West 143 165 8,000  Level Cleveland Center
Fri 11:40:13 AM 43.2117 -77.3642 251° West 142 163 8,000  Level Cleveland Center
Fri 11:40:46 AM 43.2058 -77.3839 248° West 143 165 8,000  Level Cleveland Center
Fri 11:41:07 AM 43.1994 -77.4075 250° West 143 165 8,000  Level Cleveland Center
Fri 11:41:48 AM 43.1919 -77.4350 249° West 143 165 8,000  Level Cleveland Center
Fri 11:42:08 AM 43.1853 -77.4617 251° West 144 166 8,000  Level Cleveland Center
Fri 11:42:49 AM 43.1778 -77.4861 247° West 143 165 8,000  Level Cleveland Center
Fri 11:43:09 AM 43.1717 -77.5133 253° West 145 167 8,000  Level Cleveland Center
Fri 11:43:51 AM 43.1622 -77.5478 249° West 143 165 8,000  Level Cleveland Center
Fri 11:44:03 AM 43.1589 -77.5592 248° West 143 165 8,000  Level Cleveland Center
Fri 11:44:53 AM 43.1486 -77.5983 250° West 143 165 8,000  Level Cleveland Center
Fri 11:45:04 AM 43.1433 -77.6103 239° Southwest 139 160 8,000  Level Cleveland Center
Fri 11:45:54 AM 43.1328 -77.6467 248° West 143 165 8,000  Level Cleveland Center
Fri 11:46:56 AM 43.1186 -77.6967 249° West 142 163 8,000 -194 Level Cleveland Center
Fri 11:47:58 AM 43.1233 -77.7564 276° West 153 176 7,600 -462 Descending Cleveland Center
Fri 11:49:06 AM 43.1239 -77.8339 271° West 168 193 7,000 -439 Descending Cleveland Center
Fri 11:50:01 AM 43.1258 -77.8847 273° West 166 191 6,700 -513 Descending Cleveland Center
Fri 11:51:03 AM 43.1244 -77.9636 269° West 170 196 6,000 -629 Descending Cleveland Center
Fri 11:52:05 AM 43.1222 -78.0308 267° West 173 199 5,400 -581 Descending Cleveland Center
Fri 11:53:07 AM 43.1197 -78.0986 267° West 174 200 4,800 -585 Descending Cleveland Center
Fri 11:54:08 AM 43.1203 -78.1694 271° West 180 207 4,200 -390 Descending Cleveland Center
Fri 11:55:10 AM 43.1217 -78.2356 272° West 181 208 4,000 -97 Descending Cleveland Center
Fri 11:56:12 AM 43.1233 -78.2972 272° West 173 199 4,000  Level Cleveland Center
Fri 11:57:14 AM 43.1289 -78.3675 276° West 164 189 4,000  Level Cleveland Center
Fri 11:58:15 AM 43.1236 -78.4239 263° West 155 178 4,000 49 Level Cleveland Center
Fri 11:59:17 AM 43.1200 -78.4808 265° West 154 177 4,100 48 Climbing Cleveland Center
Fri 12:00:19 PM 43.1172 -78.5475 267° West 156 180 4,100 -48 Level Cleveland Center
Fri 12:01:21 PM 43.1122 -78.6028 263° West 154 177 4,000 -435 Descending Cleveland Center
Fri 12:02:23 PM 43.1133 -78.6686 271° West 162 186 3,200 -634 Descending Cleveland Center
Fri 12:03:24 PM 43.1144 -78.7353 271° West 167 192 2,700 -488 Descending Cleveland Center
Fri 12:04:26 PM 43.1167 -78.8031 273° West 170 196 2,200 -484 Descending Cleveland Center
Fri 12:05:28 PM 43.1189 -78.8683 273° West 168 193 1,700 -387 Descending Cleveland Center
Fri 12:06:30 PM 43.1186 -78.9203 270° West 159 183 1,400 -244 Descending Cleveland Center
Fri 12:07:31 PM 43.1217 -78.9703 275° West 130 150 1,200 -146 Descending Cleveland Center
Fri 12:08:33 PM 43.0950 -78.9811 197° South 121 139 1,100 -97 Descending Cleveland Center
Fri 12:10:00 PM 43.1000 -78.9333 90° East  Level FlightAware
Fri 12:17:00 PM 43.1076 -78.9458 90° East  Level Estimated

Login

Don't have an account? Register now (free) for customized features, flight alerts, and more!